Time;durP1;ratioP1;P1;durP2;ratioP2;P2;SDS_P1;SDS_P2;PMS_P1;PMS_P2;Temp;Humidity;BMP_temperature;BMP_pressure;BME280_temperature;BME280_humidity;BME280_pressure;Samples;Min_cycle;Max_cycle;Signal;HPM_P1;HPM_P2
2024/03/29 00:02:15;;;;;;;4.32;1.02;;;;;;;;;;6170082;23;20425;-75
2024/03/29 00:04:41;;;;;;;5.15;0.80;;;;;;;;;;6179160;23;20461;-74
2024/03/29 00:07:06;;;;;;;2.80;0.65;;;;;;;;;;6182458;23;20021;-75
2024/03/29 00:09:32;;;;;;;8.10;1.02;;;;;;;;;;6175405;23;20482;-75
2024/03/29 00:11:57;;;;;;;2.33;0.80;;;;;;;;;;6181346;23;20024;-75
2024/03/29 00:14:23;;;;;;;2.67;0.80;;;;;;;;;;6174590;23;20015;-74
2024/03/29 00:16:48;;;;;;;6.65;1.25;;;;;;;;;;6151677;23;20021;-74
2024/03/29 00:19:13;;;;;;;4.05;1.15;;;;;;;;;;6155462;23;20667;-75
2024/03/29 00:21:39;;;;;;;5.32;1.00;;;;;;;;;;6174515;23;20029;-74
2024/03/29 00:24:04;;;;;;;5.18;1.10;;;;;;;;;;6158298;23;20020;-75
2024/03/29 00:26:30;;;;;;;3.28;0.70;;;;;;;;;;6151528;23;20028;-74
2024/03/29 00:28:55;;;;;;;4.95;1.00;;;;;;;;;;6179868;23;20710;-73
2024/03/29 00:31:21;;;;;;;4.47;1.00;;;;;;;;;;6146547;23;20104;-74
2024/03/29 00:33:46;;;;;;;3.78;0.95;;;;;;;;;;6181503;23;20451;-74
2024/03/29 00:36:11;;;;;;;3.47;0.82;;;;;;;;;;6156083;23;20020;-74
2024/03/29 00:38:37;;;;;;;6.32;0.98;;;;;;;;;;6150802;23;20028;-74
2024/03/29 00:41:02;;;;;;;4.68;0.82;;;;;;;;;;6157088;23;20137;-73
2024/03/29 00:43:28;;;;;;;1.55;0.60;;;;;;;;;;6170145;23;20024;-73
2024/03/29 00:45:53;;;;;;;2.97;0.70;;;;;;;;;;6151170;23;20024;-74
2024/03/29 00:48:20;;;;;;;3.22;0.80;;;;;;;;;;6180564;23;20017;-73
2024/03/29 00:50:45;;;;;;;2.53;0.77;;;;;;;;;;6173362;23;20024;-73
2024/03/29 00:53:11;;;;;;;6.32;0.77;;;;;;;;;;6182558;23;20106;-73
2024/03/29 00:55:36;;;;;;;5.60;1.00;;;;;;;;;;6175273;23;20029;-73
2024/03/29 00:58:02;;;;;;;3.03;1.08;;;;;;;;;;6177859;23;20046;-73
2024/03/29 01:00:27;;;;;;;4.72;0.70;;;;;;;;;;6170623;23;20506;-72
2024/03/29 01:02:52;;;;;;;3.05;0.80;;;;;;;;;;6155327;23;20056;-72
2024/03/29 01:05:18;;;;;;;2.92;0.98;;;;;;;;;;6180963;23;20020;-74
2024/03/29 01:07:43;;;;;;;1.48;0.50;;;;;;;;;;6175758;23;20112;-73
2024/03/29 01:10:09;;;;;;;3.00;0.88;;;;;;;;;;6182736;23;20031;-73
2024/03/29 01:12:35;;;;;;;3.30;0.70;;;;;;;;;;6170139;23;20039;-73
2024/03/29 01:15:01;;;;;;;3.65;0.90;;;;;;;;;;6176104;23;20075;-73
2024/03/29 01:17:26;;;;;;;4.13;0.70;;;;;;;;;;6180393;23;20025;-73
2024/03/29 01:19:51;;;;;;;2.53;0.60;;;;;;;;;;6173975;23;20024;-72
2024/03/29 01:22:17;;;;;;;3.88;0.73;;;;;;;;;;6180901;23;20025;-73
2024/03/29 01:24:42;;;;;;;6.10;0.95;;;;;;;;;;6148752;23;20028;-72
2024/03/29 01:27:08;;;;;;;2.47;0.70;;;;;;;;;;6177516;23;20082;-73
2024/03/29 01:29:33;;;;;;;1.38;0.50;;;;;;;;;;6171074;23;20024;-73
2024/03/29 01:31:58;;;;;;;3.63;0.60;;;;;;;;;;6179344;23;20025;-73
2024/03/29 01:34:24;;;;;;;3.13;0.80;;;;;;;;;;6180506;23;20475;-74
2024/03/29 01:36:49;;;;;;;2.80;0.70;;;;;;;;;;6172941;23;20739;-73
2024/03/29 01:39:18;;;;;;;2.88;0.60;;;;;;;;;;6180871;23;20091;-74
2024/03/29 01:41:44;;;;;;;4.32;0.60;;;;;;;;;;6169551;23;20021;-72
2024/03/29 01:44:09;;;;;;;2.95;0.70;;;;;;;;;;6176048;23;20024;-72
2024/03/29 01:46:36;;;;;;;3.00;0.90;;;;;;;;;;6179728;23;20040;-73
2024/03/29 01:49:01;;;;;;;3.80;1.30;;;;;;;;;;6174201;23;20780;-73
2024/03/29 01:51:27;;;;;;;3.42;1.08;;;;;;;;;;6157121;23;20031;-73
2024/03/29 01:53:53;;;;;;;3.72;0.70;;;;;;;;;;6148433;23;20878;-73
2024/03/29 01:56:19;;;;;;;3.45;1.08;;;;;;;;;;6177118;23;20036;-73
2024/03/29 01:58:45;;;;;;;2.42;0.98;;;;;;;;;;6169504;23;20024;-74
2024/03/29 02:01:11;;;;;;;3.38;0.80;;;;;;;;;;6181117;23;20028;-72
2024/03/29 02:03:37;;;;;;;2.97;0.68;;;;;;;;;;6180643;23;20351;-73
2024/03/29 02:06:03;;;;;;;2.90;0.90;;;;;;;;;;6150107;23;20027;-72
2024/03/29 02:08:29;;;;;;;3.85;0.80;;;;;;;;;;6179889;23;20021;-70
2024/03/29 02:10:54;;;;;;;3.28;0.90;;;;;;;;;;6168519;23;20079;-70
2024/03/29 02:13:20;;;;;;;3.08;0.77;;;;;;;;;;6178277;23;20449;-70
2024/03/29 02:15:45;;;;;;;9.68;0.93;;;;;;;;;;6179676;23;20478;-70
2024/03/29 02:18:10;;;;;;;1.35;0.70;;;;;;;;;;6173166;23;20812;-72
2024/03/29 02:20:37;;;;;;;3.08;1.00;;;;;;;;;;6181173;23;20059;-72
2024/03/29 02:23:02;;;;;;;2.75;0.82;;;;;;;;;;6171167;23;20027;-71
2024/03/29 02:25:28;;;;;;;5.88;1.08;;;;;;;;;;6175228;23;20021;-71
2024/03/29 02:27:54;;;;;;;2.70;0.60;;;;;;;;;;6172090;23;20100;-71
2024/03/29 02:30:19;;;;;;;4.13;0.90;;;;;;;;;;6180006;23;20025;-71
2024/03/29 02:32:45;;;;;;;3.53;0.80;;;;;;;;;;6180293;23;20379;-72
2024/03/29 02:35:10;;;;;;;3.08;0.88;;;;;;;;;;6173988;23;20032;-73
2024/03/29 02:37:36;;;;;;;2.30;0.50;;;;;;;;;;6177307;23;20028;-71
2024/03/29 02:40:02;;;;;;;3.50;0.65;;;;;;;;;;6168133;23;20095;-72
2024/03/29 02:42:27;;;;;;;5.63;0.88;;;;;;;;;;6179806;23;20028;-72
2024/03/29 02:44:53;;;;;;;3.30;0.82;;;;;;;;;;6178962;23;20027;-72
2024/03/29 02:47:18;;;;;;;2.83;0.70;;;;;;;;;;6173800;23;20025;-72
2024/03/29 02:49:44;;;;;;;1.05;0.60;;;;;;;;;;6181033;23;20094;-72
2024/03/29 02:52:09;;;;;;;4.90;0.77;;;;;;;;;;6170028;23;20970;-73
2024/03/29 02:54:34;;;;;;;2.90;0.70;;;;;;;;;;6176347;23;20029;-73
2024/03/29 02:57:00;;;;;;;3.13;0.88;;;;;;;;;;6154545;23;20111;-73
2024/03/29 02:59:25;;;;;;;4.60;0.70;;;;;;;;;;6175209;23;20103;-73
2024/03/29 03:01:51;;;;;;;2.58;0.70;;;;;;;;;;6179119;23;20029;-73
2024/03/29 03:04:16;;;;;;;4.45;1.35;;;;;;;;;;6174664;23;20051;-73
2024/03/29 03:06:42;;;;;;;4.00;0.63;;;;;;;;;;6151410;23;20063;-73
2024/03/29 03:11:52;;;;;;;4.75;0.80;;;;;;;;;;6179679;23;20016;-74
2024/03/29 03:14:17;;;;;;;1.88;0.70;;;;;;;;;;6157357;23;20467;-75
2024/03/29 03:16:43;;;;;;;4.97;0.90;;;;;;;;;;6174760;23;20806;-75
2024/03/29 03:19:08;;;;;;;2.55;0.85;;;;;;;;;;6183348;23;20048;-74
2024/03/29 03:21:34;;;;;;;3.95;0.80;;;;;;;;;;6172199;23;20306;-73
2024/03/29 03:24:00;;;;;;;1.85;0.70;;;;;;;;;;6177879;23;20565;-74
2024/03/29 03:26:25;;;;;;;2.55;0.70;;;;;;;;;;6157510;23;20085;-74
2024/03/29 03:28:51;;;;;;;3.00;0.85;;;;;;;;;;6175003;23;20032;-74
2024/03/29 03:31:17;;;;;;;4.68;0.68;;;;;;;;;;6182714;23;20025;-73
2024/03/29 03:33:43;;;;;;;4.30;0.88;;;;;;;;;;6175286;23;20020;-73
2024/03/29 03:36:08;;;;;;;2.85;0.75;;;;;;;;;;6176763;23;20079;-73
2024/03/29 03:38:36;;;;;;;5.03;1.10;;;;;;;;;;6147069;23;20025;-74
2024/03/29 03:41:02;;;;;;;3.03;0.57;;;;;;;;;;6181615;23;20021;-74
2024/03/29 03:43:27;;;;;;;2.53;0.85;;;;;;;;;;6182287;23;20067;-73
2024/03/29 03:45:53;;;;;;;1.00;0.60;;;;;;;;;;6149791;23;20021;-74
2024/03/29 03:48:18;;;;;;;3.85;0.70;;;;;;;;;;6178822;23;20317;-73
2024/03/29 03:50:44;;;;;;;4.03;0.73;;;;;;;;;;6171129;23;20086;-73
2024/03/29 03:53:09;;;;;;;4.80;0.55;;;;;;;;;;6157853;23;20399;-74
2024/03/29 03:55:35;;;;;;;1.80;0.70;;;;;;;;;;6157898;23;20021;-74
2024/03/29 03:58:01;;;;;;;3.60;0.73;;;;;;;;;;6176680;23;20025;-74
2024/03/29 04:00:27;;;;;;;2.35;0.68;;;;;;;;;;6182817;23;20371;-74
2024/03/29 04:02:52;;;;;;;2.30;0.52;;;;;;;;;;6171104;23;20020;-74
2024/03/29 04:05:21;;;;;;;2.75;0.60;;;;;;;;;;6152916;23;20102;-75
2024/03/29 04:07:46;;;;;;;;;;;;;;;;;;6176185;23;20020;-74
2024/03/29 04:10:12;;;;;;;2.45;0.60;;;;;;;;;;6181412;23;19923;-75
2024/03/29 04:12:37;;;;;;;3.95;0.90;;;;;;;;;;6182706;23;20493;-76
2024/03/29 04:15:04;;;;;;;1.73;0.70;;;;;;;;;;6150058;23;20600;-77
2024/03/29 04:17:32;;;;;;;0.90;0.52;;;;;;;;;;6153721;23;20024;-76
2024/03/29 04:20:01;;;;;;;1.48;0.60;;;;;;;;;;6170244;23;20020;-76
2024/03/29 04:22:30;;;;;;;0.95;0.45;;;;;;;;;;6157507;23;20456;-76
2024/03/29 04:24:55;;;;;;;2.33;0.52;;;;;;;;;;6181411;23;20020;-75
2024/03/29 04:27:20;;;;;;;0.77;0.52;;;;;;;;;;6152088;23;20537;-75
2024/03/29 04:29:46;;;;;;;0.57;0.40;;;;;;;;;;6182101;23;20028;-75
2024/03/29 04:32:11;;;;;;;1.60;0.52;;;;;;;;;;6147110;23;20106;-75
2024/03/29 04:34:37;;;;;;;1.38;0.40;;;;;;;;;;6178339;23;20024;-75
2024/03/29 04:37:02;;;;;;;3.70;0.60;;;;;;;;;;6150594;23;20412;-76
2024/03/29 04:39:28;;;;;;;1.58;0.45;;;;;;;;;;6182364;23;20032;-76
2024/03/29 04:41:54;;;;;;;4.82;1.00;;;;;;;;;;6158385;23;20015;-76
2024/03/29 04:44:24;;;;;;;3.80;0.55;;;;;;;;;;6176250;23;20024;-75
2024/03/29 04:46:49;;;;;;;4.03;0.60;;;;;;;;;;6177025;23;20016;-75
2024/03/29 04:49:17;;;;;;;6.85;0.88;;;;;;;;;;6171686;23;20033;-75
2024/03/29 04:51:43;;;;;;;2.75;1.02;;;;;;;;;;6183195;23;20460;-75
2024/03/29 04:54:08;;;;;;;2.72;0.55;;;;;;;;;;6182708;23;20044;-75
2024/03/29 04:56:36;;;;;;;1.63;0.50;;;;;;;;;;6175613;23;20071;-78
2024/03/29 04:59:02;;;;;;;5.00;0.77;;;;;;;;;;6181892;23;20028;-76
2024/03/29 05:01:27;;;;;;;2.58;0.75;;;;;;;;;;6169744;23;20024;-76
2024/03/29 05:03:53;;;;;;;2.35;0.65;;;;;;;;;;6178034;23;20055;-76
2024/03/29 05:06:18;;;;;;;4.93;0.70;;;;;;;;;;6176492;23;20043;-75
2024/03/29 05:08:44;;;;;;;4.30;1.00;;;;;;;;;;6181422;23;20020;-76
2024/03/29 05:11:10;;;;;;;3.65;1.15;;;;;;;;;;6181821;23;20024;-75
2024/03/29 05:13:38;;;;;;;5.68;1.02;;;;;;;;;;6150492;23;20044;-74
2024/03/29 05:16:04;;;;;;;2.88;0.90;;;;;;;;;;6175977;23;20017;-76
2024/03/29 05:18:29;;;;;;;3.90;0.88;;;;;;;;;;6174078;23;20416;-76
2024/03/29 05:20:55;;;;;;;2.97;0.80;;;;;;;;;;6157091;23;20026;-76
2024/03/29 05:23:20;;;;;;;2.25;1.05;;;;;;;;;;6182679;23;20091;-77
2024/03/29 05:25:48;;;;;;;3.10;0.90;;;;;;;;;;6174095;23;20518;-76
2024/03/29 05:28:13;;;;;;;2.50;0.87;;;;;;;;;;6153618;23;20020;-76
2024/03/29 05:30:39;;;;;;;3.15;0.90;;;;;;;;;;6171102;23;20125;-76
2024/03/29 05:33:06;;;;;;;1.60;0.63;;;;;;;;;;6182347;23;20024;-77
2024/03/29 05:35:32;;;;;;;1.83;0.88;;;;;;;;;;6175165;23;20036;-76
2024/03/29 05:37:58;;;;;;;2.92;0.88;;;;;;;;;;6180984;23;20579;-76
2024/03/29 05:40:25;;;;;;;3.65;0.88;;;;;;;;;;6156758;23;20028;-76
2024/03/29 05:42:50;;;;;;;2.50;0.98;;;;;;;;;;6169630;23;20071;-77
2024/03/29 05:45:26;;;;;;;3.80;0.93;;;;;;;;;;6177456;23;20021;-75
2024/03/29 05:47:53;;;;;;;1.98;0.70;;;;;;;;;;6173209;23;20647;-76
2024/03/29 05:50:19;;;;;;;4.03;0.88;;;;;;;;;;6182199;23;20028;-77
2024/03/29 05:52:44;;;;;;;4.47;0.90;;;;;;;;;;6178307;23;20051;-77
2024/03/29 05:55:09;;;;;;;2.05;0.77;;;;;;;;;;6152499;23;20055;-76
2024/03/29 05:57:38;;;;;;;2.65;0.73;;;;;;;;;;6178461;23;20063;-76
2024/03/29 06:00:05;;;;;;;3.42;1.08;;;;;;;;;;6145923;23;20021;-76
2024/03/29 06:02:30;;;;;;;3.72;0.82;;;;;;;;;;6186782;23;20031;-76
2024/03/29 06:04:55;;;;;;;1.63;0.70;;;;;;;;;;6177152;23;20021;-76
2024/03/29 06:07:21;;;;;;;3.05;0.80;;;;;;;;;;6185984;23;20048;-77
2024/03/29 06:09:46;;;;;;;4.68;0.88;;;;;;;;;;6184769;23;20551;-77
2024/03/29 06:12:12;;;;;;;2.92;0.75;;;;;;;;;;6145717;23;20024;-76
2024/03/29 06:17:25;;;;;;;2.45;0.73;;;;;;;;;;6175631;23;20016;-77
2024/03/29 06:19:51;;;;;;;2.42;0.52;;;;;;;;;;6180753;23;20061;-76
2024/03/29 06:22:17;;;;;;;3.90;0.80;;;;;;;;;;6175219;23;20021;-77
2024/03/29 06:24:44;;;;;;;2.08;0.80;;;;;;;;;;6152676;23;20020;-76
2024/03/29 06:27:09;;;;;;;3.63;1.00;;;;;;;;;;6176045;23;20016;-76
2024/03/29 06:29:35;;;;;;;3.60;1.10;;;;;;;;;;6148059;23;20160;-76
2024/03/29 06:32:00;;;;;;;1.63;1.00;;;;;;;;;;6181092;23;20040;-76
2024/03/29 06:34:26;;;;;;;5.18;0.80;;;;;;;;;;6175978;23;20052;-76
2024/03/29 06:36:51;;;;;;;4.70;1.00;;;;;;;;;;6180424;23;20031;-75
2024/03/29 06:39:17;;;;;;;3.85;0.95;;;;;;;;;;6178089;23;20021;-76
2024/03/29 06:41:42;;;;;;;4.38;0.95;;;;;;;;;;6170350;23;20359;-76
2024/03/29 06:44:08;;;;;;;2.67;0.90;;;;;;;;;;6156201;23;20098;-77
2024/03/29 06:46:34;;;;;;;2.58;0.85;;;;;;;;;;6149913;23;20159;-76
2024/03/29 06:48:59;;;;;;;2.33;0.60;;;;;;;;;;6156793;23;20664;-77
2024/03/29 06:51:25;;;;;;;2.33;0.80;;;;;;;;;;6182179;23;20021;-76
2024/03/29 06:53:51;;;;;;;2.55;0.90;;;;;;;;;;6169473;23;20246;-76
2024/03/29 06:56:17;;;;;;;3.28;1.05;;;;;;;;;;6179178;23;20021;-76
2024/03/29 06:58:42;;;;;;;4.03;0.98;;;;;;;;;;6150902;23;20087;-76
2024/03/29 07:01:08;;;;;;;4.03;1.13;;;;;;;;;;6184009;23;20096;-76
2024/03/29 07:03:33;;;;;;;1.80;0.82;;;;;;;;;;6152282;23;20031;-76
2024/03/29 07:05:59;;;;;;;1.92;0.80;;;;;;;;;;6158137;23;20020;-76
2024/03/29 07:08:24;;;;;;;3.30;1.00;;;;;;;;;;6153495;23;20031;-76
2024/03/29 07:10:57;;;;;;;2.33;0.80;;;;;;;;;;6171658;23;20444;-76
2024/03/29 07:13:22;;;;;;;2.72;1.00;;;;;;;;;;6184398;23;20032;-76
2024/03/29 07:15:52;;;;;;;4.55;1.20;;;;;;;;;;6151064;23;20020;-76
2024/03/29 07:18:17;;;;;;;5.05;1.00;;;;;;;;;;6183940;23;20039;-77
2024/03/29 07:20:42;;;;;;;1.92;1.00;;;;;;;;;;6154841;23;20794;-75
2024/03/29 07:23:08;;;;;;;2.92;1.25;;;;;;;;;;6171650;23;20020;-76
2024/03/29 07:25:33;;;;;;;3.88;1.30;;;;;;;;;;6156799;23;20027;-75
2024/03/29 07:27:59;;;;;;;2.63;1.00;;;;;;;;;;6175357;23;20028;-77
2024/03/29 07:30:24;;;;;;;4.78;1.73;;;;;;;;;;6159842;23;20043;-76
2024/03/29 07:32:50;;;;;;;2.25;0.95;;;;;;;;;;6177318;23;20027;-76
2024/03/29 07:35:16;;;;;;;2.58;0.93;;;;;;;;;;6179786;23;20025;-76
2024/03/29 07:37:45;;;;;;;1.63;0.93;;;;;;;;;;6178594;23;20087;-75
2024/03/29 07:40:12;;;;;;;;;;;;;;;;;;6151997;23;20028;-75
2024/03/29 07:42:37;;;;;;;2.38;0.85;;;;;;;;;;6181897;23;20286;-75
2024/03/29 07:45:03;;;;;;;2.40;0.93;;;;;;;;;;6150427;23;20093;-75
2024/03/29 07:47:28;;;;;;;1.52;0.80;;;;;;;;;;6182723;23;20008;-75
2024/03/29 07:49:53;;;;;;;3.45;0.88;;;;;;;;;;6153303;23;20023;-76
2024/03/29 07:52:21;;;;;;;1.63;1.00;;;;;;;;;;6168982;23;20028;-75
2024/03/29 07:54:47;;;;;;;7.63;0.90;;;;;;;;;;6157932;23;20024;-76
2024/03/29 07:57:14;;;;;;;1.25;0.60;;;;;;;;;;6175559;23;20083;-76
2024/03/29 07:59:40;;;;;;;3.13;0.90;;;;;;;;;;6182366;23;20136;-75
2024/03/29 08:02:06;;;;;;;3.55;1.05;;;;;;;;;;6175170;23;20336;-75
2024/03/29 08:04:31;;;;;;;2.00;1.10;;;;;;;;;;6178347;23;20020;-75
2024/03/29 08:06:57;;;;;;;1.80;0.95;;;;;;;;;;6151984;23;20025;-75
2024/03/29 08:09:22;;;;;;;1.45;0.80;;;;;;;;;;6176013;23;20042;-76
2024/03/29 08:11:48;;;;;;;4.28;1.23;;;;;;;;;;6157472;23;20505;-76
2024/03/29 08:14:13;;;;;;;2.38;1.33;;;;;;;;;;6151750;23;20024;-76
2024/03/29 08:16:39;;;;;;;2.42;1.17;;;;;;;;;;6156625;23;20024;-76
2024/03/29 08:19:04;;;;;;;3.03;1.10;;;;;;;;;;6151189;23;20486;-75
2024/03/29 08:21:30;;;;;;;2.78;1.23;;;;;;;;;;6172990;23;20418;-76
2024/03/29 08:23:56;;;;;;;5.10;1.35;;;;;;;;;;6181449;23;20024;-76
2024/03/29 08:26:22;;;;;;;3.00;1.13;;;;;;;;;;6176141;23;20059;-76
2024/03/29 08:28:47;;;;;;;3.95;1.10;;;;;;;;;;6182306;23;20031;-75
2024/03/29 08:31:12;;;;;;;2.58;1.40;;;;;;;;;;6175969;23;20091;-75
2024/03/29 08:33:38;;;;;;;3.80;1.15;;;;;;;;;;6174612;23;20115;-75
2024/03/29 08:36:08;;;;;;;3.30;1.50;;;;;;;;;;6180057;23;20043;-75
2024/03/29 08:38:33;;;;;;;4.32;1.63;;;;;;;;;;6150947;23;20027;-75
2024/03/29 08:40:59;;;;;;;7.07;1.60;;;;;;;;;;6181836;23;20025;-75
2024/03/29 08:43:24;;;;;;;4.07;1.55;;;;;;;;;;6175257;23;20072;-76
2024/03/29 08:45:50;;;;;;;6.07;2.33;;;;;;;;;;6179541;23;20096;-75
2024/03/29 08:48:15;;;;;;;4.22;2.03;;;;;;;;;;6177979;23;20694;-75
2024/03/29 08:50:41;;;;;;;4.05;1.83;;;;;;;;;;6173973;23;20028;-76
2024/03/29 08:53:06;;;;;;;5.35;2.22;;;;;;;;;;6181248;23;20086;-75
2024/03/29 08:55:33;;;;;;;2.20;1.48;;;;;;;;;;6175494;23;20329;-74
2024/03/29 08:57:58;;;;;;;6.00;1.88;;;;;;;;;;6154211;23;20095;-76
2024/03/29 09:00:24;;;;;;;3.40;1.83;;;;;;;;;;6147018;23;20024;-76
2024/03/29 09:02:50;;;;;;;4.60;1.80;;;;;;;;;;6178769;23;20028;-78
2024/03/29 09:05:16;;;;;;;2.47;1.20;;;;;;;;;;6132834;23;20447;-77
2024/03/29 09:07:42;;;;;;;4.18;1.63;;;;;;;;;;6151107;23;20031;-77
2024/03/29 09:10:07;;;;;;;4.35;1.15;;;;;;;;;;6183129;23;20048;-78
2024/03/29 09:12:33;;;;;;;4.60;1.30;;;;;;;;;;6148246;23;20111;-78
2024/03/29 09:14:58;;;;;;;3.08;1.40;;;;;;;;;;6150765;23;20024;-75
2024/03/29 09:17:24;;;;;;;3.90;1.20;;;;;;;;;;6182167;23;20017;-77
2024/03/29 09:19:51;;;;;;;2.95;1.02;;;;;;;;;;6173789;23;20047;-76
2024/03/29 09:22:17;;;;;;;6.15;1.52;;;;;;;;;;6180903;23;20024;-76
2024/03/29 09:24:42;;;;;;;6.82;1.30;;;;;;;;;;6175418;23;20031;-76
2024/03/29 09:27:08;;;;;;;3.90;1.40;;;;;;;;;;6179811;23;20691;-76
2024/03/29 09:29:34;;;;;;;3.63;1.23;;;;;;;;;;6173421;23;20024;-75
2024/03/29 09:32:01;;;;;;;3.28;1.50;;;;;;;;;;6177249;23;20024;-75
2024/03/29 09:34:27;;;;;;;3.37;1.13;;;;;;;;;;6157695;23;20463;-74
2024/03/29 09:36:53;;;;;;;3.50;1.05;;;;;;;;;;6174003;23;20035;-75
2024/03/29 09:39:18;;;;;;;3.60;1.10;;;;;;;;;;6182203;23;20031;-76
2024/03/29 09:41:47;;;;;;;2.35;1.30;;;;;;;;;;6145862;23;20027;-75
2024/03/29 09:44:14;;;;;;;2.42;1.23;;;;;;;;;;6180568;23;20086;-74
2024/03/29 09:46:41;;;;;;;4.25;1.63;;;;;;;;;;6181012;23;20021;-75
2024/03/29 09:49:07;;;;;;;4.30;1.38;;;;;;;;;;6173948;23;20024;-76
2024/03/29 09:51:33;;;;;;;3.58;1.25;;;;;;;;;;6181388;23;20028;-75
2024/03/29 09:53:59;;;;;;;3.80;1.40;;;;;;;;;;6172818;23;20024;-76
2024/03/29 09:56:26;;;;;;;3.97;1.58;;;;;;;;;;6176436;23;20055;-74
2024/03/29 09:58:51;;;;;;;3.25;1.17;;;;;;;;;;6176351;23;20598;-75
2024/03/29 10:01:18;;;;;;;2.35;1.30;;;;;;;;;;6174953;23;20027;-75
2024/03/29 10:03:45;;;;;;;2.33;1.42;;;;;;;;;;6156117;23;20020;-75
2024/03/29 10:06:14;;;;;;;2.90;1.40;;;;;;;;;;6150250;23;20031;-74
2024/03/29 10:08:39;;;;;;;3.03;1.33;;;;;;;;;;6155649;23;20510;-74
2024/03/29 10:11:05;;;;;;;2.58;1.25;;;;;;;;;;6148710;23;20028;-75
2024/03/29 10:13:30;;;;;;;3.55;1.48;;;;;;;;;;6181679;23;20309;-79
2024/03/29 10:15:56;;;;;;;2.42;1.50;;;;;;;;;;6182340;23;20074;-74
2024/03/29 10:18:25;;;;;;;2.53;1.55;;;;;;;;;;6150188;23;20509;-76
2024/03/29 10:21:03;;;;;;;3.97;1.45;;;;;;;;;;6176631;23;20005;-77
2024/03/29 10:23:30;;;;;;;4.18;1.80;;;;;;;;;;6145025;23;20123;-80
2024/03/29 10:25:55;;;;;;;3.08;1.50;;;;;;;;;;6155324;23;20020;-76
2024/03/29 10:28:21;;;;;;;1.95;1.35;;;;;;;;;;6177593;23;20340;-76
2024/03/29 10:30:47;;;;;;;4.43;1.70;;;;;;;;;;6151266;23;20035;-77
2024/03/29 10:33:13;;;;;;;4.53;1.67;;;;;;;;;;6156788;23;20105;-77
2024/03/29 10:35:41;;;;;;;3.95;1.85;;;;;;;;;;6168521;23;20028;-76
2024/03/29 10:38:07;;;;;;;6.40;2.00;;;;;;;;;;6177022;23;20451;-76
2024/03/29 10:40:32;;;;;;;3.67;1.60;;;;;;;;;;6173710;23;20131;-76
2024/03/29 10:42:58;;;;;;;3.63;1.63;;;;;;;;;;6155486;23;20087;-76
2024/03/29 10:45:25;;;;;;;3.58;1.70;;;;;;;;;;6156877;23;20112;-77
2024/03/29 10:47:52;;;;;;;2.80;1.55;;;;;;;;;;6148874;23;20027;-77
2024/03/29 10:50:19;;;;;;;4.45;2.17;;;;;;;;;;6151999;23;20074;-77
2024/03/29 10:52:45;;;;;;;3.88;1.70;;;;;;;;;;6172549;23;20517;-78
2024/03/29 10:55:11;;;;;;;3.25;1.50;;;;;;;;;;6156635;23;20635;-76
2024/03/29 10:57:40;;;;;;;4.75;1.88;;;;;;;;;;6152205;23;20036;-75
2024/03/29 11:00:14;;;;;;;3.65;1.42;;;;;;;;;;6203049;23;20333;-75
2024/03/29 11:03:09;;;;;;;4.60;2.00;;;;;;;;;;6175306;23;20078;-75
2024/03/29 11:05:35;;;;;;;3.47;1.33;;;;;;;;;;6171380;23;20025;-76
2024/03/29 11:08:06;;;;;;;6.10;1.80;;;;;;;;;;6179675;23;20027;-77
2024/03/29 11:10:31;;;;;;;1.83;1.30;;;;;;;;;;6175048;23;20021;-76
2024/03/29 11:13:11;;;;;;;2.17;1.60;;;;;;;;;;6160031;23;20044;-74
2024/03/29 11:15:37;;;;;;;3.40;1.48;;;;;;;;;;6184362;23;20021;-73
2024/03/29 11:18:04;;;;;;;3.78;1.70;;;;;;;;;;6183462;23;20081;-75
2024/03/29 11:20:39;;;;;;;5.70;1.75;;;;;;;;;;6181222;23;20021;-75
2024/03/29 11:23:09;;;;;;;2.45;1.45;;;;;;;;;;6178785;23;20028;-76
2024/03/29 11:25:42;;;;;;;2.65;1.38;;;;;;;;;;6154957;23;20348;-77
2024/03/29 11:28:08;;;;;;;1.90;1.13;;;;;;;;;;6143252;23;20024;-76
2024/03/29 11:30:41;;;;;;;2.95;1.55;;;;;;;;;;6179193;23;20029;-77
2024/03/29 11:33:07;;;;;;;3.22;1.30;;;;;;;;;;6174209;23;20078;-76
2024/03/29 11:35:33;;;;;;;2.38;1.30;;;;;;;;;;6181919;23;20033;-76
2024/03/29 11:38:01;;;;;;;4.10;1.55;;;;;;;;;;6184255;23;20024;-76
2024/03/29 11:40:30;;;;;;;1.85;1.30;;;;;;;;;;6171681;23;20375;-76
2024/03/29 11:42:56;;;;;;;2.90;1.30;;;;;;;;;;6152318;23;20019;-77
2024/03/29 11:45:27;;;;;;;2.50;1.40;;;;;;;;;;6175411;23;20071;-77
2024/03/29 11:47:54;;;;;;;6.30;1.40;;;;;;;;;;6182060;23;20020;-76
2024/03/29 11:50:20;;;;;;;2.63;1.20;;;;;;;;;;6182095;23;20020;-77
2024/03/29 11:52:45;;;;;;;3.17;1.17;;;;;;;;;;6175519;23;20035;-77
2024/03/29 11:55:10;;;;;;;1.88;1.15;;;;;;;;;;6153233;23;20024;-76
2024/03/29 11:57:40;;;;;;;3.78;1.30;;;;;;;;;;6147872;23;20352;-76
2024/03/29 12:00:06;;;;;;;2.22;1.17;;;;;;;;;;6158003;23;20957;-77
2024/03/29 12:02:32;;;;;;;2.70;1.05;;;;;;;;;;6151959;23;20025;-76
2024/03/29 12:04:57;;;;;;;1.33;0.77;;;;;;;;;;6157835;23;20032;-77
2024/03/29 12:07:23;;;;;;;2.45;0.70;;;;;;;;;;6183078;23;20020;-77
2024/03/29 12:09:48;;;;;;;2.72;0.80;;;;;;;;;;6146813;23;20027;-76
2024/03/29 12:12:17;;;;;;;1.23;0.80;;;;;;;;;;6178920;23;20016;-76
2024/03/29 12:14:42;;;;;;;;;;;;;;;;;;6151582;23;20383;-76
2024/03/29 12:17:10;;;;;;;1.10;0.65;;;;;;;;;;6157484;23;19919;-75
2024/03/29 12:19:38;;;;;;;3.25;0.70;;;;;;;;;;6157795;23;20020;-76
2024/03/29 12:22:04;;;;;;;1.00;0.90;;;;;;;;;;6179096;23;20083;-75
2024/03/29 12:24:30;;;;;;;2.15;0.82;;;;;;;;;;6184970;23;20344;-75
2024/03/29 12:26:55;;;;;;;1.92;0.70;;;;;;;;;;6182378;23;20048;-74
2024/03/29 12:29:20;;;;;;;2.10;0.75;;;;;;;;;;6184834;23;20321;-77
2024/03/29 12:31:55;;;;;;;1.83;1.00;;;;;;;;;;6157773;23;20055;-76
2024/03/29 12:34:22;;;;;;;1.33;0.80;;;;;;;;;;6161843;23;20470;-74
2024/03/29 12:36:47;;;;;;;2.72;0.77;;;;;;;;;;6158157;23;20029;-76
2024/03/29 12:39:13;;;;;;;3.15;0.90;;;;;;;;;;6173772;23;20020;-73
2024/03/29 12:41:38;;;;;;;0.68;0.60;;;;;;;;;;6185859;23;20672;-76
2024/03/29 12:44:06;;;;;;;3.83;0.80;;;;;;;;;;6184036;23;20449;-76
2024/03/29 12:46:31;;;;;;;2.08;0.70;;;;;;;;;;6189853;23;20036;-75
2024/03/29 12:48:58;;;;;;;1.70;0.98;;;;;;;;;;6161546;23;20021;-73
2024/03/29 12:51:23;;;;;;;0.85;0.70;;;;;;;;;;6181204;23;20021;-76
2024/03/29 12:53:49;;;;;;;0.90;0.70;;;;;;;;;;6176682;23;20051;-76
2024/03/29 12:56:14;;;;;;;1.63;0.75;;;;;;;;;;6175153;23;20046;-76
2024/03/29 12:58:40;;;;;;;1.60;0.73;;;;;;;;;;6181541;23;20020;-76
2024/03/29 13:01:06;;;;;;;1.45;0.77;;;;;;;;;;6177404;23;20055;-76
2024/03/29 13:03:32;;;;;;;0.95;0.50;;;;;;;;;;6180482;23;20027;-76
2024/03/29 13:05:57;;;;;;;1.08;0.70;;;;;;;;;;6153371;23;20099;-78
2024/03/29 13:08:23;;;;;;;1.38;0.70;;;;;;;;;;6146994;23;20368;-79
2024/03/29 13:10:48;;;;;;;0.80;0.60;;;;;;;;;;6156271;23;20025;-79
2024/03/29 13:13:14;;;;;;;1.35;0.70;;;;;;;;;;6175804;23;20028;-78
2024/03/29 13:15:42;;;;;;;1.65;0.60;;;;;;;;;;6181325;23;20099;-78
2024/03/29 13:18:08;;;;;;;3.10;0.75;;;;;;;;;;6181611;23;20028;-79
2024/03/29 13:20:40;;;;;;;2.03;0.70;;;;;;;;;;6170832;23;20367;-79
2024/03/29 13:23:06;;;;;;;2.30;1.10;;;;;;;;;;6176846;23;20028;-78
2024/03/29 13:25:32;;;;;;;1.10;0.70;;;;;;;;;;6148920;23;20021;-77
2024/03/29 13:27:57;;;;;;;0.50;0.50;;;;;;;;;;6180941;23;20024;-77
2024/03/29 13:30:24;;;;;;;1.80;0.60;;;;;;;;;;6176121;23;20106;-78
2024/03/29 13:32:50;;;;;;;0.50;0.50;;;;;;;;;;6157175;23;20021;-75
2024/03/29 13:35:16;;;;;;;1.08;0.60;;;;;;;;;;6185910;23;20418;-75
2024/03/29 13:37:48;;;;;;;1.63;0.70;;;;;;;;;;6185498;23;20031;-74
2024/03/29 13:40:14;;;;;;;1.02;0.57;;;;;;;;;;6183688;23;20033;-75
2024/03/29 13:42:39;;;;;;;1.23;0.60;;;;;;;;;;6152875;23;20487;-73
2024/03/29 13:45:05;;;;;;;0.98;0.60;;;;;;;;;;6161654;23;20125;-74
2024/03/29 13:47:35;;;;;;;1.05;0.57;;;;;;;;;;6184205;23;20020;-74
2024/03/29 13:50:00;;;;;;;0.60;0.60;;;;;;;;;;6160092;23;20027;-74
2024/03/29 13:52:28;;;;;;;0.75;0.57;;;;;;;;;;6186308;23;20021;-73
2024/03/29 13:54:54;;;;;;;0.82;0.60;;;;;;;;;;6160226;23;20021;-73
2024/03/29 13:57:19;;;;;;;0.50;0.50;;;;;;;;;;6186051;23;20475;-74
2024/03/29 13:59:45;;;;;;;1.08;0.50;;;;;;;;;;6162198;23;20699;-74
2024/03/29 14:02:12;;;;;;;1.85;0.70;;;;;;;;;;6183972;23;20047;-72
2024/03/29 14:04:37;;;;;;;1.08;0.40;;;;;;;;;;6161679;23;20020;-74
2024/03/29 14:07:06;;;;;;;3.30;0.77;;;;;;;;;;6157259;23;20085;-72
2024/03/29 14:09:32;;;;;;;1.63;0.57;;;;;;;;;;6162091;23;20017;-75
2024/03/29 14:11:58;;;;;;;1.17;0.60;;;;;;;;;;6160552;23;20527;-74
2024/03/29 14:14:23;;;;;;;0.77;0.60;;;;;;;;;;6160011;23;20035;-73
2024/03/29 14:16:49;;;;;;;0.60;0.47;;;;;;;;;;6159194;23;20025;-73
2024/03/29 14:19:14;;;;;;;1.73;0.50;;;;;;;;;;6176438;23;20028;-74
2024/03/29 14:21:40;;;;;;;1.38;0.70;;;;;;;;;;6179932;23;20032;-76
2024/03/29 14:24:05;;;;;;;0.40;0.40;;;;;;;;;;6151317;23;20024;-75
2024/03/29 14:26:31;;;;;;;0.57;0.50;;;;;;;;;;6155790;23;20056;-75
2024/03/29 14:28:56;;;;;;;0.65;0.50;;;;;;;;;;6158278;23;20025;-74
2024/03/29 14:31:22;;;;;;;1.63;0.63;;;;;;;;;;6149498;23;20024;-74
2024/03/29 14:33:47;;;;;;;0.95;0.50;;;;;;;;;;6182261;23;20021;-74
2024/03/29 14:36:13;;;;;;;1.13;0.40;;;;;;;;;;6151929;23;20073;-74
2024/03/29 14:38:38;;;;;;;1.08;0.47;;;;;;;;;;6180753;23;20027;-74
2024/03/29 14:41:04;;;;;;;0.50;0.50;;;;;;;;;;6181441;23;20021;-78
2024/03/29 14:43:29;;;;;;;0.55;0.50;;;;;;;;;;6144705;23;20051;-74